sensor_id;sensor_type;location;lat;lon;timestamp;temperature;humidity
14670;DHT22;7423;48.722;9.350;2024-02-21T00:00:46;9.80;99.90
14670;DHT22;7423;48.722;9.350;2024-02-21T00:03:13;9.80;99.90
14670;DHT22;7423;48.722;9.350;2024-02-21T00:05:41;9.80;99.90
14670;DHT22;7423;48.722;9.350;2024-02-21T00:08:08;9.80;99.90
14670;DHT22;7423;48.722;9.350;2024-02-21T00:10:35;9.80;99.90
14670;DHT22;7423;48.722;9.350;2024-02-21T00:13:03;9.90;99.90
14670;DHT22;7423;48.722;9.350;2024-02-21T00:15:30;9.90;99.90
14670;DHT22;7423;48.722;9.350;2024-02-21T00:17:57;9.90;99.90
14670;DHT22;7423;48.722;9.350;2024-02-21T00:20:24;9.80;99.90
14670;DHT22;7423;48.722;9.350;2024-02-21T00:22:52;9.80;99.90
14670;DHT22;7423;48.722;9.350;2024-02-21T00:25:20;9.90;99.90
14670;DHT22;7423;48.722;9.350;2024-02-21T00:27:47;9.80;99.90
14670;DHT22;7423;48.722;9.350;2024-02-21T00:30:13;11.60;99.90
14670;DHT22;7423;48.722;9.350;2024-02-21T00:32:40;9.80;99.90
14670;DHT22;7423;48.722;9.350;2024-02-21T00:35:08;9.80;99.90
14670;DHT22;7423;48.722;9.350;2024-02-21T00:37:35;9.80;99.90
14670;DHT22;7423;48.722;9.350;2024-02-21T00:40:02;9.80;99.90
14670;DHT22;7423;48.722;9.350;2024-02-21T00:42:29;9.80;99.90
14670;DHT22;7423;48.722;9.350;2024-02-21T00:44:56;9.80;99.90
14670;DHT22;7423;48.722;9.350;2024-02-21T00:47:22;9.80;99.90
14670;DHT22;7423;48.722;9.350;2024-02-21T00:49:49;9.80;99.90
14670;DHT22;7423;48.722;9.350;2024-02-21T00:52:17;9.80;99.90
14670;DHT22;7423;48.722;9.350;2024-02-21T00:54:43;9.80;99.90
14670;DHT22;7423;48.722;9.350;2024-02-21T00:57:19;9.80;99.90
14670;DHT22;7423;48.722;9.350;2024-02-21T00:59:46;9.80;99.90
14670;DHT22;7423;48.722;9.350;2024-02-21T01:02:13;9.80;99.90
14670;DHT22;7423;48.722;9.350;2024-02-21T01:04:40;9.80;99.90
14670;DHT22;7423;48.722;9.350;2024-02-21T01:07:07;9.90;99.90
14670;DHT22;7423;48.722;9.350;2024-02-21T01:09:34;9.90;99.90
14670;DHT22;7423;48.722;9.350;2024-02-21T01:12:01;9.90;99.90
14670;DHT22;7423;48.722;9.350;2024-02-21T01:14:28;9.90;99.90
14670;DHT22;7423;48.722;9.350;2024-02-21T01:16:55;9.90;99.90
14670;DHT22;7423;48.722;9.350;2024-02-21T01:19:22;9.90;99.90
14670;DHT22;7423;48.722;9.350;2024-02-21T01:21:50;9.90;99.90
14670;DHT22;7423;48.722;9.350;2024-02-21T01:24:17;9.90;99.90
14670;DHT22;7423;48.722;9.350;2024-02-21T01:26:44;9.80;99.90
14670;DHT22;7423;48.722;9.350;2024-02-21T01:29:11;9.90;99.90
14670;DHT22;7423;48.722;9.350;2024-02-21T01:31:38;9.90;99.90
14670;DHT22;7423;48.722;9.350;2024-02-21T01:34:05;9.90;99.90
14670;DHT22;7423;48.722;9.350;2024-02-21T01:36:32;9.90;99.90
14670;DHT22;7423;48.722;9.350;2024-02-21T01:39:00;10.00;99.90
14670;DHT22;7423;48.722;9.350;2024-02-21T01:41:30;10.00;99.90
14670;DHT22;7423;48.722;9.350;2024-02-21T01:43:58;10.00;99.90
14670;DHT22;7423;48.722;9.350;2024-02-21T01:46:25;10.00;99.90
14670;DHT22;7423;48.722;9.350;2024-02-21T01:48:57;10.00;99.90
14670;DHT22;7423;48.722;9.350;2024-02-21T01:51:24;10.00;99.90
14670;DHT22;7423;48.722;9.350;2024-02-21T01:53:53;10.00;99.90
14670;DHT22;7423;48.722;9.350;2024-02-21T01:56:22;10.00;99.90
14670;DHT22;7423;48.722;9.350;2024-02-21T01:58:51;10.00;99.90
14670;DHT22;7423;48.722;9.350;2024-02-21T02:01:18;10.00;99.90
14670;DHT22;7423;48.722;9.350;2024-02-21T02:03:48;10.00;99.90
14670;DHT22;7423;48.722;9.350;2024-02-21T02:06:16;10.00;99.90
14670;DHT22;7423;48.722;9.350;2024-02-21T02:08:44;10.10;99.90
14670;DHT22;7423;48.722;9.350;2024-02-21T02:11:13;10.10;99.90
14670;DHT22;7423;48.722;9.350;2024-02-21T02:13:41;10.10;99.90
14670;DHT22;7423;48.722;9.350;2024-02-21T02:16:08;10.10;99.90
14670;DHT22;7423;48.722;9.350;2024-02-21T02:18:35;10.10;99.90
14670;DHT22;7423;48.722;9.350;2024-02-21T02:21:08;10.20;99.90
14670;DHT22;7423;48.722;9.350;2024-02-21T02:23:41;10.20;99.90
14670;DHT22;7423;48.722;9.350;2024-02-21T02:26:09;10.20;99.90
14670;DHT22;7423;48.722;9.350;2024-02-21T02:28:35;10.20;99.90
14670;DHT22;7423;48.722;9.350;2024-02-21T02:31:05;10.20;99.90
14670;DHT22;7423;48.722;9.350;2024-02-21T02:33:32;10.20;99.90
14670;DHT22;7423;48.722;9.350;2024-02-21T02:35:59;10.20;99.90
14670;DHT22;7423;48.722;9.350;2024-02-21T02:38:27;10.10;99.90
14670;DHT22;7423;48.722;9.350;2024-02-21T02:40:54;10.00;99.90
14670;DHT22;7423;48.722;9.350;2024-02-21T02:43:21;10.20;99.90
14670;DHT22;7423;48.722;9.350;2024-02-21T02:45:48;10.20;99.90
14670;DHT22;7423;48.722;9.350;2024-02-21T02:48:15;10.20;99.90
14670;DHT22;7423;48.722;9.350;2024-02-21T02:50:42;10.30;99.90
14670;DHT22;7423;48.722;9.350;2024-02-21T02:53:09;10.30;99.90
14670;DHT22;7423;48.722;9.350;2024-02-21T02:55:36;10.20;99.90
14670;DHT22;7423;48.722;9.350;2024-02-21T02:58:03;10.30;99.90
14670;DHT22;7423;48.722;9.350;2024-02-21T03:00:30;10.20;99.90
14670;DHT22;7423;48.722;9.350;2024-02-21T03:02:58;10.20;99.90
14670;DHT22;7423;48.722;9.350;2024-02-21T03:05:24;10.20;99.90
14670;DHT22;7423;48.722;9.350;2024-02-21T03:07:52;10.20;99.90
14670;DHT22;7423;48.722;9.350;2024-02-21T03:10:19;10.30;99.90
14670;DHT22;7423;48.722;9.350;2024-02-21T03:12:46;10.20;99.90
14670;DHT22;7423;48.722;9.350;2024-02-21T03:15:14;10.20;99.90
14670;DHT22;7423;48.722;9.350;2024-02-21T03:17:41;10.30;99.90
14670;DHT22;7423;48.722;9.350;2024-02-21T03:20:10;10.30;99.90
14670;DHT22;7423;48.722;9.350;2024-02-21T03:22:40;10.20;99.90
14670;DHT22;7423;48.722;9.350;2024-02-21T03:25:09;10.30;99.90
14670;DHT22;7423;48.722;9.350;2024-02-21T03:27:37;10.20;99.90
14670;DHT22;7423;48.722;9.350;2024-02-21T03:30:04;10.20;99.90
14670;DHT22;7423;48.722;9.350;2024-02-21T03:32:31;10.30;99.90
14670;DHT22;7423;48.722;9.350;2024-02-21T03:34:59;10.20;99.90
14670;DHT22;7423;48.722;9.350;2024-02-21T03:37:26;10.20;99.90
14670;DHT22;7423;48.722;9.350;2024-02-21T03:39:53;10.20;99.90
14670;DHT22;7423;48.722;9.350;2024-02-21T03:42:20;10.20;99.90
14670;DHT22;7423;48.722;9.350;2024-02-21T03:44:47;10.20;99.90
14670;DHT22;7423;48.722;9.350;2024-02-21T03:47:14;10.20;99.90
14670;DHT22;7423;48.722;9.350;2024-02-21T03:49:41;10.20;99.90
14670;DHT22;7423;48.722;9.350;2024-02-21T03:52:09;10.20;99.90
14670;DHT22;7423;48.722;9.350;2024-02-21T03:54:37;10.20;99.90
14670;DHT22;7423;48.722;9.350;2024-02-21T03:57:05;10.50;99.90
14670;DHT22;7423;48.722;9.350;2024-02-21T03:59:33;10.50;99.90
14670;DHT22;7423;48.722;9.350;2024-02-21T04:02:00;10.40;99.90
14670;DHT22;7423;48.722;9.350;2024-02-21T04:04:27;10.30;99.90
14670;DHT22;7423;48.722;9.350;2024-02-21T04:06:54;10.20;99.90
14670;DHT22;7423;48.722;9.350;2024-02-21T04:09:21;10.00;99.90
14670;DHT22;7423;48.722;9.350;2024-02-21T04:11:48;9.90;99.90
14670;DHT22;7423;48.722;9.350;2024-02-21T04:14:15;9.90;99.90
14670;DHT22;7423;48.722;9.350;2024-02-21T04:16:42;9.90;99.90
14670;DHT22;7423;48.722;9.350;2024-02-21T04:19:09;11.80;99.90
14670;DHT22;7423;48.722;9.350;2024-02-21T04:21:36;10.00;99.90
14670;DHT22;7423;48.722;9.350;2024-02-21T04:24:03;10.00;99.90
14670;DHT22;7423;48.722;9.350;2024-02-21T04:26:33;10.00;99.90
14670;DHT22;7423;48.722;9.350;2024-02-21T04:29:01;10.10;99.90
14670;DHT22;7423;48.722;9.350;2024-02-21T04:31:29;10.00;99.90
14670;DHT22;7423;48.722;9.350;2024-02-21T04:33:56;10.00;99.90
14670;DHT22;7423;48.722;9.350;2024-02-21T04:36:23;10.00;99.90
14670;DHT22;7423;48.722;9.350;2024-02-21T04:38:51;10.00;99.90
14670;DHT22;7423;48.722;9.350;2024-02-21T04:41:18;10.00;99.90
14670;DHT22;7423;48.722;9.350;2024-02-21T04:43:46;10.00;99.90
14670;DHT22;7423;48.722;9.350;2024-02-21T04:46:14;10.00;99.90
14670;DHT22;7423;48.722;9.350;2024-02-21T04:48:42;10.00;99.90
14670;DHT22;7423;48.722;9.350;2024-02-21T04:51:11;10.00;99.90
14670;DHT22;7423;48.722;9.350;2024-02-21T04:53:38;10.00;99.90
14670;DHT22;7423;48.722;9.350;2024-02-21T04:56:05;10.20;99.90
14670;DHT22;7423;48.722;9.350;2024-02-21T04:58:32;9.90;99.90
14670;DHT22;7423;48.722;9.350;2024-02-21T05:00:59;9.90;99.90
14670;DHT22;7423;48.722;9.350;2024-02-21T05:03:27;9.90;99.90
14670;DHT22;7423;48.722;9.350;2024-02-21T05:05:53;9.80;99.90
14670;DHT22;7423;48.722;9.350;2024-02-21T05:08:21;9.80;99.90
14670;DHT22;7423;48.722;9.350;2024-02-21T05:10:47;9.80;99.90
14670;DHT22;7423;48.722;9.350;2024-02-21T05:13:15;9.80;99.90
14670;DHT22;7423;48.722;9.350;2024-02-21T05:15:42;9.70;99.90
14670;DHT22;7423;48.722;9.350;2024-02-21T05:18:09;9.70;99.90
14670;DHT22;7423;48.722;9.350;2024-02-21T05:20:36;9.70;99.90
14670;DHT22;7423;48.722;9.350;2024-02-21T05:23:03;9.60;99.90
14670;DHT22;7423;48.722;9.350;2024-02-21T05:25:31;9.60;99.90
14670;DHT22;7423;48.722;9.350;2024-02-21T05:28:00;9.30;99.90
14670;DHT22;7423;48.722;9.350;2024-02-21T05:30:29;9.50;99.90
14670;DHT22;7423;48.722;9.350;2024-02-21T05:32:57;9.50;99.90
14670;DHT22;7423;48.722;9.350;2024-02-21T05:35:28;9.60;99.90
14670;DHT22;7423;48.722;9.350;2024-02-21T05:37:55;9.50;99.90
14670;DHT22;7423;48.722;9.350;2024-02-21T05:40:22;9.50;99.90
14670;DHT22;7423;48.722;9.350;2024-02-21T05:42:49;9.50;99.90
14670;DHT22;7423;48.722;9.350;2024-02-21T05:45:18;9.50;99.90
14670;DHT22;7423;48.722;9.350;2024-02-21T05:47:45;9.50;99.90
14670;DHT22;7423;48.722;9.350;2024-02-21T05:50:12;9.40;99.90
14670;DHT22;7423;48.722;9.350;2024-02-21T05:52:39;9.40;99.90
14670;DHT22;7423;48.722;9.350;2024-02-21T05:55:07;9.30;99.90
14670;DHT22;7423;48.722;9.350;2024-02-21T05:57:35;9.30;99.90
14670;DHT22;7423;48.722;9.350;2024-02-21T06:00:07;9.30;99.90
14670;DHT22;7423;48.722;9.350;2024-02-21T06:02:34;9.20;99.90
14670;DHT22;7423;48.722;9.350;2024-02-21T06:05:01;9.30;99.90
14670;DHT22;7423;48.722;9.350;2024-02-21T06:07:28;9.30;99.90
14670;DHT22;7423;48.722;9.350;2024-02-21T06:09:55;9.30;99.90
14670;DHT22;7423;48.722;9.350;2024-02-21T06:12:22;9.30;99.90
14670;DHT22;7423;48.722;9.350;2024-02-21T06:14:49;9.20;99.90
14670;DHT22;7423;48.722;9.350;2024-02-21T06:17:16;9.20;99.90
14670;DHT22;7423;48.722;9.350;2024-02-21T06:19:43;9.20;99.90
14670;DHT22;7423;48.722;9.350;2024-02-21T06:22:11;9.20;99.90
14670;DHT22;7423;48.722;9.350;2024-02-21T06:24:39;9.10;99.90
14670;DHT22;7423;48.722;9.350;2024-02-21T06:27:06;9.10;99.90
14670;DHT22;7423;48.722;9.350;2024-02-21T06:29:36;9.20;99.90
14670;DHT22;7423;48.722;9.350;2024-02-21T06:32:04;9.20;99.90
14670;DHT22;7423;48.722;9.350;2024-02-21T06:34:31;9.20;99.90
14670;DHT22;7423;48.722;9.350;2024-02-21T06:37:00;9.50;99.90
14670;DHT22;7423;48.722;9.350;2024-02-21T06:39:27;9.20;99.90
14670;DHT22;7423;48.722;9.350;2024-02-21T06:41:56;9.20;99.90
14670;DHT22;7423;48.722;9.350;2024-02-21T06:44:29;9.20;99.90
14670;DHT22;7423;48.722;9.350;2024-02-21T06:46:56;9.20;99.90
14670;DHT22;7423;48.722;9.350;2024-02-21T06:49:23;9.20;99.90
14670;DHT22;7423;48.722;9.350;2024-02-21T06:51:51;9.20;99.90
14670;DHT22;7423;48.722;9.350;2024-02-21T06:54:18;9.20;99.90
14670;DHT22;7423;48.722;9.350;2024-02-21T06:56:46;9.10;99.90
14670;DHT22;7423;48.722;9.350;2024-02-21T06:59:13;9.10;99.90
14670;DHT22;7423;48.722;9.350;2024-02-21T07:01:51;9.00;99.90
14670;DHT22;7423;48.722;9.350;2024-02-21T07:04:19;9.10;99.90
14670;DHT22;7423;48.722;9.350;2024-02-21T07:06:46;9.10;99.90
14670;DHT22;7423;48.722;9.350;2024-02-21T07:09:13;9.00;99.90
14670;DHT22;7423;48.722;9.350;2024-02-21T07:11:40;9.00;99.90
14670;DHT22;7423;48.722;9.350;2024-02-21T07:14:07;9.10;99.90
14670;DHT22;7423;48.722;9.350;2024-02-21T07:16:34;9.10;99.90
14670;DHT22;7423;48.722;9.350;2024-02-21T07:19:02;9.10;99.90
14670;DHT22;7423;48.722;9.350;2024-02-21T07:21:29;9.10;99.90
14670;DHT22;7423;48.722;9.350;2024-02-21T07:23:56;9.10;99.90
14670;DHT22;7423;48.722;9.350;2024-02-21T07:26:23;9.10;99.90
14670;DHT22;7423;48.722;9.350;2024-02-21T07:28:50;9.20;99.90
14670;DHT22;7423;48.722;9.350;2024-02-21T07:31:17;9.20;99.90
14670;DHT22;7423;48.722;9.350;2024-02-21T07:33:44;9.20;99.90
14670;DHT22;7423;48.722;9.350;2024-02-21T07:36:11;9.20;99.90
14670;DHT22;7423;48.722;9.350;2024-02-21T07:38:39;9.20;99.90
14670;DHT22;7423;48.722;9.350;2024-02-21T07:41:06;9.20;99.90
14670;DHT22;7423;48.722;9.350;2024-02-21T07:43:33;9.20;99.90
14670;DHT22;7423;48.722;9.350;2024-02-21T07:46:00;9.30;99.90
14670;DHT22;7423;48.722;9.350;2024-02-21T07:48:27;9.30;99.90
14670;DHT22;7423;48.722;9.350;2024-02-21T07:50:56;9.40;99.90
14670;DHT22;7423;48.722;9.350;2024-02-21T07:53:23;9.40;99.90
14670;DHT22;7423;48.722;9.350;2024-02-21T07:55:49;9.50;99.90
14670;DHT22;7423;48.722;9.350;2024-02-21T07:58:16;9.60;99.90
14670;DHT22;7423;48.722;9.350;2024-02-21T08:00:43;9.60;99.90
14670;DHT22;7423;48.722;9.350;2024-02-21T08:03:10;9.70;99.90
14670;DHT22;7423;48.722;9.350;2024-02-21T08:05:37;9.80;99.90
14670;DHT22;7423;48.722;9.350;2024-02-21T08:08:04;9.80;99.90
14670;DHT22;7423;48.722;9.350;2024-02-21T08:10:32;9.80;99.90
14670;DHT22;7423;48.722;9.350;2024-02-21T08:12:58;9.80;99.90
14670;DHT22;7423;48.722;9.350;2024-02-21T08:15:25;9.90;99.90
14670;DHT22;7423;48.722;9.350;2024-02-21T08:17:56;10.00;99.90
14670;DHT22;7423;48.722;9.350;2024-02-21T08:20:26;10.00;99.90
14670;DHT22;7423;48.722;9.350;2024-02-21T08:22:53;10.10;99.90
14670;DHT22;7423;48.722;9.350;2024-02-21T08:25:20;10.10;99.90
14670;DHT22;7423;48.722;9.350;2024-02-21T08:27:47;10.10;99.90
14670;DHT22;7423;48.722;9.350;2024-02-21T08:30:15;10.20;99.90
14670;DHT22;7423;48.722;9.350;2024-02-21T08:32:42;10.20;99.90
14670;DHT22;7423;48.722;9.350;2024-02-21T08:35:09;10.20;99.90
14670;DHT22;7423;48.722;9.350;2024-02-21T08:37:36;10.20;99.90
14670;DHT22;7423;48.722;9.350;2024-02-21T08:40:04;10.20;99.90
14670;DHT22;7423;48.722;9.350;2024-02-21T08:42:35;10.30;99.90
14670;DHT22;7423;48.722;9.350;2024-02-21T08:45:03;10.20;99.90
14670;DHT22;7423;48.722;9.350;2024-02-21T08:47:30;10.20;99.90
14670;DHT22;7423;48.722;9.350;2024-02-21T08:49:58;10.20;99.90
14670;DHT22;7423;48.722;9.350;2024-02-21T08:52:30;10.30;99.90
14670;DHT22;7423;48.722;9.350;2024-02-21T08:54:57;10.20;99.90
14670;DHT22;7423;48.722;9.350;2024-02-21T08:57:24;10.20;99.90
14670;DHT22;7423;48.722;9.350;2024-02-21T08:59:51;10.30;99.90
14670;DHT22;7423;48.722;9.350;2024-02-21T09:02:18;11.10;99.90
14670;DHT22;7423;48.722;9.350;2024-02-21T09:04:45;10.40;99.90
14670;DHT22;7423;48.722;9.350;2024-02-21T09:07:12;10.40;99.90
14670;DHT22;7423;48.722;9.350;2024-02-21T09:09:39;10.40;99.90
14670;DHT22;7423;48.722;9.350;2024-02-21T09:12:06;10.40;99.90
14670;DHT22;7423;48.722;9.350;2024-02-21T09:14:36;10.50;99.90
14670;DHT22;7423;48.722;9.350;2024-02-21T09:17:06;10.50;99.90
14670;DHT22;7423;48.722;9.350;2024-02-21T09:19:35;10.60;99.90
14670;DHT22;7423;48.722;9.350;2024-02-21T09:22:02;10.70;99.90
14670;DHT22;7423;48.722;9.350;2024-02-21T09:24:29;10.80;99.90
14670;DHT22;7423;48.722;9.350;2024-02-21T09:26:56;10.80;99.90
14670;DHT22;7423;48.722;9.350;2024-02-21T09:29:23;10.90;99.90
14670;DHT22;7423;48.722;9.350;2024-02-21T09:31:53;10.80;99.90
14670;DHT22;7423;48.722;9.350;2024-02-21T09:34:20;10.90;99.90
14670;DHT22;7423;48.722;9.350;2024-02-21T09:36:48;11.00;99.90
14670;DHT22;7423;48.722;9.350;2024-02-21T09:39:15;11.00;99.90
14670;DHT22;7423;48.722;9.350;2024-02-21T09:41:59;11.10;99.90
14670;DHT22;7423;48.722;9.350;2024-02-21T09:44:38;11.10;99.90
14670;DHT22;7423;48.722;9.350;2024-02-21T09:50:34;11.20;99.90
14670;DHT22;7423;48.722;9.350;2024-02-21T09:53:04;11.30;99.90
14670;DHT22;7423;48.722;9.350;2024-02-21T09:55:33;11.30;99.90
14670;DHT22;7423;48.722;9.350;2024-02-21T09:58:02;11.40;99.90
14670;DHT22;7423;48.722;9.350;2024-02-21T10:00:30;11.40;99.90
14670;DHT22;7423;48.722;9.350;2024-02-21T10:02:58;11.50;99.90
14670;DHT22;7423;48.722;9.350;2024-02-21T10:05:25;11.50;99.90
14670;DHT22;7423;48.722;9.350;2024-02-21T10:07:55;11.60;99.90
14670;DHT22;7423;48.722;9.350;2024-02-21T10:10:23;11.60;99.90
14670;DHT22;7423;48.722;9.350;2024-02-21T10:12:51;11.70;99.90
14670;DHT22;7423;48.722;9.350;2024-02-21T10:15:21;11.70;99.90
14670;DHT22;7423;48.722;9.350;2024-02-21T10:17:59;11.70;99.90
14670;DHT22;7423;48.722;9.350;2024-02-21T10:20:27;11.70;99.90
14670;DHT22;7423;48.722;9.350;2024-02-21T10:23:02;11.80;99.90
14670;DHT22;7423;48.722;9.350;2024-02-21T10:25:30;11.80;99.90
14670;DHT22;7423;48.722;9.350;2024-02-21T10:27:57;12.00;99.90
14670;DHT22;7423;48.722;9.350;2024-02-21T10:30:24;12.00;99.90
14670;DHT22;7423;48.722;9.350;2024-02-21T10:32:55;12.00;99.90
14670;DHT22;7423;48.722;9.350;2024-02-21T10:35:29;12.10;99.90
14670;DHT22;7423;48.722;9.350;2024-02-21T10:38:00;12.20;99.90
14670;DHT22;7423;48.722;9.350;2024-02-21T10:40:29;12.30;99.90
14670;DHT22;7423;48.722;9.350;2024-02-21T10:42:59;12.30;99.90
14670;DHT22;7423;48.722;9.350;2024-02-21T10:45:31;12.40;99.90
14670;DHT22;7423;48.722;9.350;2024-02-21T10:48:14;12.40;99.90
14670;DHT22;7423;48.722;9.350;2024-02-21T10:50:56;11.70;99.90
14670;DHT22;7423;48.722;9.350;2024-02-21T10:53:44;12.50;99.90
14670;DHT22;7423;48.722;9.350;2024-02-21T10:56:30;12.60;99.90
14670;DHT22;7423;48.722;9.350;2024-02-21T10:59:04;12.60;99.90
14670;DHT22;7423;48.722;9.350;2024-02-21T11:01:32;12.70;99.90
14670;DHT22;7423;48.722;9.350;2024-02-21T11:04:05;12.70;99.90
14670;DHT22;7423;48.722;9.350;2024-02-21T11:06:35;12.80;99.90
14670;DHT22;7423;48.722;9.350;2024-02-21T11:09:03;12.90;99.90
14670;DHT22;7423;48.722;9.350;2024-02-21T11:11:42;12.90;99.90
14670;DHT22;7423;48.722;9.350;2024-02-21T11:14:17;12.90;99.90
14670;DHT22;7423;48.722;9.350;2024-02-21T11:16:45;12.90;99.90
14670;DHT22;7423;48.722;9.350;2024-02-21T11:19:19;13.00;99.90
14670;DHT22;7423;48.722;9.350;2024-02-21T11:21:47;13.00;99.90
14670;DHT22;7423;48.722;9.350;2024-02-21T11:24:28;13.10;99.90
14670;DHT22;7423;48.722;9.350;2024-02-21T11:27:19;13.10;99.90
14670;DHT22;7423;48.722;9.350;2024-02-21T11:29:48;13.20;99.90
14670;DHT22;7423;48.722;9.350;2024-02-21T11:32:26;13.20;99.90
14670;DHT22;7423;48.722;9.350;2024-02-21T11:37:25;13.30;99.90
14670;DHT22;7423;48.722;9.350;2024-02-21T11:39:55;13.30;99.90
14670;DHT22;7423;48.722;9.350;2024-02-21T11:42:22;13.30;99.90
14670;DHT22;7423;48.722;9.350;2024-02-21T11:44:51;13.30;99.90
14670;DHT22;7423;48.722;9.350;2024-02-21T11:47:19;13.40;99.90
14670;DHT22;7423;48.722;9.350;2024-02-21T11:49:47;13.40;99.90
14670;DHT22;7423;48.722;9.350;2024-02-21T11:52:24;13.30;99.90
14670;DHT22;7423;48.722;9.350;2024-02-21T11:54:53;13.40;99.90
14670;DHT22;7423;48.722;9.350;2024-02-21T11:57:22;13.40;99.90
14670;DHT22;7423;48.722;9.350;2024-02-21T11:59:51;13.50;99.90
14670;DHT22;7423;48.722;9.350;2024-02-21T12:02:26;13.50;99.90
14670;DHT22;7423;48.722;9.350;2024-02-21T12:04:53;13.60;99.90
14670;DHT22;7423;48.722;9.350;2024-02-21T12:07:21;13.60;99.90
14670;DHT22;7423;48.722;9.350;2024-02-21T12:09:51;13.60;99.90
14670;DHT22;7423;48.722;9.350;2024-02-21T12:12:20;13.70;99.90
14670;DHT22;7423;48.722;9.350;2024-02-21T12:14:57;13.70;99.90
14670;DHT22;7423;48.722;9.350;2024-02-21T12:17:25;13.70;99.90
14670;DHT22;7423;48.722;9.350;2024-02-21T12:19:52;13.70;99.90
14670;DHT22;7423;48.722;9.350;2024-02-21T12:22:19;13.70;99.90
14670;DHT22;7423;48.722;9.350;2024-02-21T12:24:46;13.80;99.90
14670;DHT22;7423;48.722;9.350;2024-02-21T12:27:15;13.80;99.90
14670;DHT22;7423;48.722;9.350;2024-02-21T12:29:42;13.90;99.90
14670;DHT22;7423;48.722;9.350;2024-02-21T12:32:08;14.00;99.90
14670;DHT22;7423;48.722;9.350;2024-02-21T12:34:35;13.90;99.90
14670;DHT22;7423;48.722;9.350;2024-02-21T12:37:18;13.90;99.90
14670;DHT22;7423;48.722;9.350;2024-02-21T12:39:47;13.90;99.90
14670;DHT22;7423;48.722;9.350;2024-02-21T12:42:14;13.90;99.90
14670;DHT22;7423;48.722;9.350;2024-02-21T12:44:41;13.90;99.90
14670;DHT22;7423;48.722;9.350;2024-02-21T12:47:10;14.00;99.90
14670;DHT22;7423;48.722;9.350;2024-02-21T12:49:37;14.20;99.90
14670;DHT22;7423;48.722;9.350;2024-02-21T12:52:10;14.20;99.90
14670;DHT22;7423;48.722;9.350;2024-02-21T12:54:38;14.10;99.90
14670;DHT22;7423;48.722;9.350;2024-02-21T12:57:05;14.10;99.90
14670;DHT22;7423;48.722;9.350;2024-02-21T12:59:32;14.10;99.90
14670;DHT22;7423;48.722;9.350;2024-02-21T13:01:59;14.10;99.90
14670;DHT22;7423;48.722;9.350;2024-02-21T13:04:26;14.20;99.90
14670;DHT22;7423;48.722;9.350;2024-02-21T13:06:53;14.10;99.90
14670;DHT22;7423;48.722;9.350;2024-02-21T13:09:21;14.10;99.90
14670;DHT22;7423;48.722;9.350;2024-02-21T13:11:48;14.20;99.90
14670;DHT22;7423;48.722;9.350;2024-02-21T13:14:15;14.20;99.90
14670;DHT22;7423;48.722;9.350;2024-02-21T13:16:42;14.10;99.90
14670;DHT22;7423;48.722;9.350;2024-02-21T13:19:09;14.20;99.90
14670;DHT22;7423;48.722;9.350;2024-02-21T13:21:36;14.30;99.90
14670;DHT22;7423;48.722;9.350;2024-02-21T13:24:04;14.20;99.90
14670;DHT22;7423;48.722;9.350;2024-02-21T13:26:31;14.20;99.90
14670;DHT22;7423;48.722;9.350;2024-02-21T13:28:59;14.30;99.10
14670;DHT22;7423;48.722;9.350;2024-02-21T13:31:26;14.30;99.70
14670;DHT22;7423;48.722;9.350;2024-02-21T13:33:53;14.30;99.90
14670;DHT22;7423;48.722;9.350;2024-02-21T13:36:20;14.30;99.70
14670;DHT22;7423;48.722;9.350;2024-02-21T13:38:47;14.30;99.90
14670;DHT22;7423;48.722;9.350;2024-02-21T13:41:14;14.30;99.50
14670;DHT22;7423;48.722;9.350;2024-02-21T13:43:41;14.40;99.30
14670;DHT22;7423;48.722;9.350;2024-02-21T13:46:08;14.50;99.50
14670;DHT22;7423;48.722;9.350;2024-02-21T13:48:37;14.50;98.40
14670;DHT22;7423;48.722;9.350;2024-02-21T13:51:05;14.50;98.10
14670;DHT22;7423;48.722;9.350;2024-02-21T13:53:31;14.50;98.90
14670;DHT22;7423;48.722;9.350;2024-02-21T13:55:58;14.50;99.40
14670;DHT22;7423;48.722;9.350;2024-02-21T13:58:25;14.40;99.80
14670;DHT22;7423;48.722;9.350;2024-02-21T14:00:53;14.50;99.90
14670;DHT22;7423;48.722;9.350;2024-02-21T14:03:21;14.50;99.90
14670;DHT22;7423;48.722;9.350;2024-02-21T14:05:48;14.50;99.90
14670;DHT22;7423;48.722;9.350;2024-02-21T14:08:15;14.40;99.90
14670;DHT22;7423;48.722;9.350;2024-02-21T14:10:42;14.50;99.90
14670;DHT22;7423;48.722;9.350;2024-02-21T14:13:11;14.40;99.90
14670;DHT22;7423;48.722;9.350;2024-02-21T14:15:39;14.40;99.90
14670;DHT22;7423;48.722;9.350;2024-02-21T14:18:08;14.50;99.90
14670;DHT22;7423;48.722;9.350;2024-02-21T14:20:37;14.40;99.90
14670;DHT22;7423;48.722;9.350;2024-02-21T14:23:04;14.50;99.90
14670;DHT22;7423;48.722;9.350;2024-02-21T14:25:31;14.50;99.90
14670;DHT22;7423;48.722;9.350;2024-02-21T14:28:00;14.60;99.90
14670;DHT22;7423;48.722;9.350;2024-02-21T14:30:29;14.50;99.90
14670;DHT22;7423;48.722;9.350;2024-02-21T14:32:56;14.50;99.90
14670;DHT22;7423;48.722;9.350;2024-02-21T14:35:24;14.50;99.90
14670;DHT22;7423;48.722;9.350;2024-02-21T14:37:51;14.50;99.90
14670;DHT22;7423;48.722;9.350;2024-02-21T14:40:25;14.60;99.90
14670;DHT22;7423;48.722;9.350;2024-02-21T14:42:52;14.60;99.90
14670;DHT22;7423;48.722;9.350;2024-02-21T14:45:19;14.60;99.90
14670;DHT22;7423;48.722;9.350;2024-02-21T14:47:46;14.60;99.90
14670;DHT22;7423;48.722;9.350;2024-02-21T14:50:13;14.60;99.90
14670;DHT22;7423;48.722;9.350;2024-02-21T14:52:40;14.60;99.90
14670;DHT22;7423;48.722;9.350;2024-02-21T14:55:09;14.60;99.90
14670;DHT22;7423;48.722;9.350;2024-02-21T14:57:36;14.60;99.90
14670;DHT22;7423;48.722;9.350;2024-02-21T15:00:05;14.60;99.90
14670;DHT22;7423;48.722;9.350;2024-02-21T15:02:34;14.60;99.90
14670;DHT22;7423;48.722;9.350;2024-02-21T15:05:02;14.60;99.90
14670;DHT22;7423;48.722;9.350;2024-02-21T15:07:31;14.60;99.90
14670;DHT22;7423;48.722;9.350;2024-02-21T15:09:58;14.60;99.90
14670;DHT22;7423;48.722;9.350;2024-02-21T15:12:25;14.60;99.90
14670;DHT22;7423;48.722;9.350;2024-02-21T15:14:52;14.60;99.90
14670;DHT22;7423;48.722;9.350;2024-02-21T15:17:20;14.60;99.90
14670;DHT22;7423;48.722;9.350;2024-02-21T15:19:48;14.60;99.90
14670;DHT22;7423;48.722;9.350;2024-02-21T15:22:16;14.60;99.90
14670;DHT22;7423;48.722;9.350;2024-02-21T15:24:44;14.60;99.90
14670;DHT22;7423;48.722;9.350;2024-02-21T15:27:15;15.90;99.90
14670;DHT22;7423;48.722;9.350;2024-02-21T15:32:25;14.60;99.90
14670;DHT22;7423;48.722;9.350;2024-02-21T15:34:54;15.50;99.90
14670;DHT22;7423;48.722;9.350;2024-02-21T15:37:21;14.60;99.90
14670;DHT22;7423;48.722;9.350;2024-02-21T15:39:48;14.60;99.90
14670;DHT22;7423;48.722;9.350;2024-02-21T15:42:15;14.70;99.90
14670;DHT22;7423;48.722;9.350;2024-02-21T15:44:43;14.60;99.90
14670;DHT22;7423;48.722;9.350;2024-02-21T15:47:10;14.70;99.90
14670;DHT22;7423;48.722;9.350;2024-02-21T15:49:37;14.70;99.90
14670;DHT22;7423;48.722;9.350;2024-02-21T15:52:04;13.30;99.90
14670;DHT22;7423;48.722;9.350;2024-02-21T15:54:32;14.60;99.90
14670;DHT22;7423;48.722;9.350;2024-02-21T15:56:59;14.60;99.90
14670;DHT22;7423;48.722;9.350;2024-02-21T15:59:26;14.60;99.90
14670;DHT22;7423;48.722;9.350;2024-02-21T16:01:53;14.60;99.90
14670;DHT22;7423;48.722;9.350;2024-02-21T16:04:20;14.60;99.90